Time;durP1;ratioP1;P1;durP2;ratioP2;P2;SDS_P1;SDS_P2;PMS_P1;PMS_P2;Temp;Humidity;BMP_temperature;BMP_pressure;BME280_temperature;BME280_humidity;BME280_pressure;Samples;Min_cycle;Max_cycle;Signal;HPM_P1;HPM_P2
2022/11/20 00:00:49;;;;;;;20.30;9.48;;;-4.20;99.90;;;;;;5092834;28;20028;-70
2022/11/20 00:03:15;;;;;;;17.92;8.35;;;-4.20;99.90;;;;;;5091833;28;20119;-67
2022/11/20 00:05:41;;;;;;;19.50;8.93;;;-4.30;99.90;;;;;;5091721;28;20024;-67
2022/11/20 00:08:07;;;;;;;19.88;8.85;;;-4.30;99.90;;;;;;5091087;28;20103;-70
2022/11/20 00:10:35;;;;;;;18.05;8.55;;;-4.30;99.90;;;;;;5092490;28;20027;-70
2022/11/20 00:13:01;;;;;;;19.80;8.90;;;-4.30;99.90;;;;;;5091668;28;20024;-67
2022/11/20 00:15:26;;;;;;;14.43;7.97;;;-4.30;99.90;;;;;;5091507;28;20027;-66
2022/11/20 00:17:52;;;;;;;17.50;8.30;;;-4.30;99.90;;;;;;5091301;28;20032;-68
2022/11/20 00:20:18;;;;;;;18.65;8.90;;;-4.30;99.90;;;;;;5092464;28;20024;-68
2022/11/20 00:22:43;;;;;;;19.30;8.70;;;-4.40;99.90;;;;;;5091269;28;20024;-68
2022/11/20 00:25:09;;;;;;;18.15;8.48;;;-4.40;99.90;;;;;;5092202;28;20491;-69
2022/11/20 00:27:35;;;;;;;21.30;9.13;;;-4.30;99.90;;;;;;5090823;28;20024;-69
2022/11/20 00:30:01;;;;;;;18.17;8.65;;;-4.30;99.90;;;;;;5090679;28;20044;-71
2022/11/20 00:32:27;;;;;;;21.80;9.05;;;-4.30;99.90;;;;;;5089911;28;20036;-66
2022/11/20 00:34:53;;;;;;;15.23;8.07;;;-4.30;99.90;;;;;;5092630;28;20022;-71
2022/11/20 00:37:18;;;;;;;20.08;7.78;;;-4.30;99.90;;;;;;5090593;28;20028;-66
2022/11/20 00:39:44;;;;;;;18.15;8.95;;;-4.40;99.90;;;;;;5090931;28;20115;-66
2022/11/20 00:42:09;;;;;;;21.80;9.00;;;-4.40;99.90;;;;;;5091930;28;20055;-66
2022/11/20 00:44:35;;;;;;;13.75;7.93;;;-4.40;99.90;;;;;;5091156;28;20012;-66
2022/11/20 00:47:01;;;;;;;15.65;8.52;;;-4.50;99.90;;;;;;5092328;28;20070;-66
2022/11/20 00:49:26;;;;;;;14.55;8.00;;;-4.40;99.90;;;;;;5091178;28;20028;-66
2022/11/20 00:51:52;;;;;;;14.45;6.82;;;-4.50;99.90;;;;;;5090538;28;20038;-66
2022/11/20 00:54:17;;;;;;;18.38;8.15;;;-4.50;99.90;;;;;;5090522;28;20103;-66
2022/11/20 00:56:43;;;;;;;14.40;7.72;;;-4.50;99.90;;;;;;5091501;28;20468;-66
2022/11/20 00:59:09;;;;;;;17.33;8.50;;;-4.50;99.90;;;;;;5090188;28;20153;-66
2022/11/20 01:01:36;;;;;;;17.45;9.55;;;-4.50;99.90;;;;;;5092179;28;20046;-66
2022/11/20 01:04:02;;;;;;;19.63;9.40;;;-4.50;99.90;;;;;;5092380;28;20047;-65
2022/11/20 01:06:32;;;;;;;17.42;7.95;;;-4.50;99.90;;;;;;5091354;28;20469;-66
2022/11/20 01:09:00;;;;;;;19.55;9.07;;;-4.50;99.90;;;;;;5092444;28;20020;-66
2022/11/20 01:11:31;;;;;;;17.77;9.48;;;-4.60;99.90;;;;;;5091556;28;20109;-66
2022/11/20 01:13:58;;;;;;;15.05;7.90;;;-4.50;99.90;;;;;;5091091;28;20148;-65
2022/11/20 01:16:30;;;;;;;18.15;8.00;;;-4.60;99.90;;;;;;5090627;28;20048;-66
2022/11/20 01:18:59;;;;;;;18.55;8.15;;;-4.70;99.90;;;;;;5091126;28;20055;-66
2022/11/20 01:21:33;;;;;;;15.85;7.90;;;-4.70;99.90;;;;;;5089139;28;20122;-66
2022/11/20 01:23:59;;;;;;;14.75;7.90;;;-4.70;99.90;;;;;;5091537;28;20021;-66
2022/11/20 01:26:28;;;;;;;16.00;7.85;;;-4.80;99.90;;;;;;5091155;28;20040;-66
2022/11/20 01:28:55;;;;;;;14.40;7.38;;;-4.80;99.90;;;;;;5090593;28;20048;-66
2022/11/20 01:31:34;;;;;;;12.63;6.88;;;-4.90;99.90;;;;;;5091464;28;20032;-66
2022/11/20 01:34:09;;;;;;;13.07;6.95;;;-5.00;99.90;;;;;;5090682;28;20035;-66
2022/11/20 01:36:36;;;;;;;15.60;7.35;;;-5.00;99.90;;;;;;5091015;28;20027;-66
2022/11/20 01:39:05;;;;;;;19.25;7.47;;;-5.00;99.90;;;;;;5089308;28;20028;-66
2022/11/20 01:44:19;;;;;;;24.33;7.93;;;-5.00;99.90;;;;;;5090505;28;20042;-66
2022/11/20 01:47:03;;;;;;;19.33;8.00;;;-5.00;99.90;;;;;;5089773;28;20091;-66
2022/11/20 01:49:37;;;;;;;15.43;7.78;;;-4.90;99.90;;;;;;5091014;28;20078;-66
2022/11/20 01:52:21;;;;;;;13.80;7.13;;;-5.00;99.90;;;;;;5090856;28;20055;-65
2022/11/20 01:54:50;;;;;;;13.48;7.78;;;-5.00;99.90;;;;;;5091298;28;20027;-65
2022/11/20 01:57:17;;;;;;;14.57;7.50;;;-5.00;99.90;;;;;;5090799;28;20044;-65
2022/11/20 01:59:52;;;;;;;16.23;8.10;;;-5.00;99.90;;;;;;5089493;28;20026;-66
2022/11/20 02:02:18;;;;;;;13.85;7.65;;;-5.00;99.90;;;;;;5088355;28;20464;-66
2022/11/20 02:04:44;;;;;;;18.05;7.32;;;-4.90;99.90;;;;;;5090184;28;20123;-67
2022/11/20 02:07:11;;;;;;;19.75;9.23;;;-5.00;99.90;;;;;;5090786;28;20035;-66
2022/11/20 02:09:37;;;;;;;17.55;8.50;;;-5.00;99.90;;;;;;5089243;28;20046;-68
2022/11/20 02:12:03;;;;;;;17.30;8.27;;;-5.00;99.90;;;;;;5089661;28;20013;-68
2022/11/20 02:14:29;;;;;;;16.67;7.68;;;-5.00;99.90;;;;;;5089580;28;20407;-66
2022/11/20 02:16:55;;;;;;;14.68;7.93;;;-5.00;99.90;;;;;;5089207;28;20039;-66
2022/11/20 02:19:30;;;;;;;16.92;7.55;;;-5.00;99.90;;;;;;5089453;28;20097;-66
2022/11/20 02:22:12;;;;;;;16.98;7.68;;;-5.00;99.90;;;;;;5089138;28;20380;-67
2022/11/20 02:24:39;;;;;;;19.90;8.38;;;-5.00;99.90;;;;;;5089094;28;20142;-66
2022/11/20 02:27:14;;;;;;;16.77;8.68;;;-5.00;99.90;;;;;;5089829;28;20110;-66
2022/11/20 02:29:51;;;;;;;16.92;7.05;;;-5.10;99.90;;;;;;5089739;28;20158;-67
2022/11/20 02:32:25;;;;;;;13.68;7.18;;;-5.10;99.90;;;;;;5090172;28;20476;-66
2022/11/20 02:34:51;;;;;;;18.30;7.20;;;-5.10;99.90;;;;;;5091207;28;20500;-65
2022/11/20 02:37:17;;;;;;;13.73;6.95;;;-5.10;99.90;;;;;;5090067;28;20054;-67
2022/11/20 02:39:45;;;;;;;19.92;8.02;;;-5.20;99.90;;;;;;5090091;28;20016;-67
2022/11/20 02:42:11;;;;;;;15.20;7.93;;;-5.20;99.90;;;;;;5091177;28;20051;-67
2022/11/20 02:44:38;;;;;;;16.55;7.85;;;-5.30;99.90;;;;;;5088711;28;20062;-66
2022/11/20 02:47:03;;;;;;;15.02;7.32;;;-5.30;99.90;;;;;;5089297;28;20016;-65
2022/11/20 02:49:29;;;;;;;16.05;7.45;;;-5.30;99.90;;;;;;5088053;28;20024;-65
2022/11/20 02:51:54;;;;;;;14.88;7.10;;;-5.40;99.90;;;;;;5092921;28;20020;-66
2022/11/20 02:54:20;;;;;;;18.20;8.18;;;-5.40;99.90;;;;;;5094320;28;20107;-67
2022/11/20 02:56:47;;;;;;;16.88;7.95;;;-5.30;99.90;;;;;;5094034;28;20028;-66
2022/11/20 02:59:13;;;;;;;14.38;7.30;;;-5.30;99.90;;;;;;5093935;28;20048;-65
2022/11/20 03:01:38;;;;;;;15.32;7.55;;;-5.20;99.90;;;;;;5093920;28;20059;-66
2022/11/20 03:04:04;;;;;;;14.90;6.90;;;-5.20;99.90;;;;;;5093632;28;20099;-65
2022/11/20 03:06:30;;;;;;;14.13;7.82;;;-5.10;99.90;;;;;;5093169;28;20417;-67
2022/11/20 03:08:55;;;;;;;18.30;7.47;;;-5.10;99.90;;;;;;5094237;28;20070;-65
2022/11/20 03:11:21;;;;;;;13.60;7.70;;;-5.10;99.90;;;;;;5093064;28;20039;-67
2022/11/20 03:13:47;;;;;;;19.00;8.45;;;-5.10;99.90;;;;;;5094070;28;20020;-66
2022/11/20 03:16:19;;;;;;;15.52;7.70;;;-5.00;99.90;;;;;;5093468;28;20063;-66
2022/11/20 03:18:45;;;;;;;16.60;8.60;;;-5.10;99.90;;;;;;5093192;28;20089;-66
2022/11/20 03:21:12;;;;;;;16.42;7.18;;;-5.10;99.90;;;;;;5092931;28;20482;-66
2022/11/20 03:23:38;;;;;;;18.48;9.18;;;-5.20;99.90;;;;;;5093253;28;20157;-66
2022/11/20 03:26:22;;;;;;;17.65;9.07;;;-5.20;99.90;;;;;;5092885;28;20043;-65
2022/11/20 03:28:50;;;;;;;16.35;8.55;;;-5.30;99.90;;;;;;5093342;28;20048;-66
2022/11/20 03:31:18;;;;;;;14.70;8.48;;;-5.30;99.90;;;;;;5092717;28;20020;-66
2022/11/20 03:33:44;;;;;;;20.27;8.63;;;-5.30;99.90;;;;;;5092647;28;20047;-66
2022/11/20 03:36:12;;;;;;;17.48;7.32;;;-5.30;99.90;;;;;;5092985;28;20024;-66
2022/11/20 03:38:38;;;;;;;21.55;8.25;;;-5.30;99.90;;;;;;5094045;28;20028;-66
2022/11/20 03:41:10;;;;;;;20.65;8.80;;;-5.30;99.90;;;;;;5090606;28;20073;-65
2022/11/20 03:43:35;;;;;;;;;;;-5.30;99.90;;;;;;5093194;28;20024;-66
2022/11/20 03:46:02;;;;;;;15.68;7.82;;;-5.30;99.90;;;;;;5094038;28;19911;-65
2022/11/20 03:48:27;;;;;;;20.25;7.80;;;-5.40;99.90;;;;;;5092069;28;20059;-66
2022/11/20 03:51:06;;;;;;;19.33;8.38;;;-5.40;99.90;;;;;;5093611;28;20052;-66
2022/11/20 03:53:31;;;;;;;16.55;7.82;;;-5.40;99.90;;;;;;5092583;28;20078;-65
2022/11/20 03:55:57;;;;;;;17.63;8.40;;;-5.40;99.90;;;;;;5093202;28;20031;-65
2022/11/20 03:58:22;;;;;;;16.10;8.27;;;-5.50;99.90;;;;;;5091545;28;20036;-66
2022/11/20 04:00:48;;;;;;;17.90;8.05;;;-5.50;99.90;;;;;;5092505;28;20024;-65
2022/11/20 04:03:13;;;;;;;16.85;7.35;;;-5.50;99.90;;;;;;5091406;28;20028;-65
2022/11/20 04:05:39;;;;;;;14.45;7.88;;;-5.50;99.90;;;;;;5093746;28;20024;-65
2022/11/20 04:08:05;;;;;;;17.23;7.45;;;-5.50;99.90;;;;;;5092960;28;20081;-66
2022/11/20 04:10:30;;;;;;;19.02;7.80;;;-5.50;99.90;;;;;;5093514;28;20472;-66
2022/11/20 04:12:56;;;;;;;16.20;8.13;;;-5.50;99.90;;;;;;5092710;28;20028;-66
2022/11/20 04:15:22;;;;;;;15.05;7.78;;;-5.50;99.90;;;;;;5092126;28;20028;-68
2022/11/20 04:17:47;;;;;;;19.30;7.88;;;-5.50;99.90;;;;;;5092729;28;20075;-67
2022/11/20 04:20:13;;;;;;;15.82;8.32;;;-5.50;99.90;;;;;;5092591;28;20027;-67
2022/11/20 04:22:38;;;;;;;17.77;8.25;;;-5.50;99.90;;;;;;5091948;28;20046;-66
2022/11/20 04:25:04;;;;;;;23.83;8.88;;;-5.40;99.90;;;;;;5091669;28;20019;-67
2022/11/20 04:27:31;;;;;;;14.93;8.13;;;-5.40;99.90;;;;;;5092000;28;20024;-67
2022/11/20 04:29:56;;;;;;;18.55;9.38;;;-5.50;99.90;;;;;;5091018;28;20127;-67
2022/11/20 04:32:22;;;;;;;14.40;8.10;;;-5.50;99.90;;;;;;5092101;28;20107;-68
2022/11/20 04:34:47;;;;;;;16.55;8.23;;;-5.40;99.90;;;;;;5091901;28;20016;-67
2022/11/20 04:37:13;;;;;;;15.38;7.15;;;-5.40;99.90;;;;;;5091247;28;20028;-68
2022/11/20 04:39:38;;;;;;;16.05;7.82;;;-5.40;99.90;;;;;;5091762;28;20028;-67
2022/11/20 04:44:48;;;;;;;17.05;8.00;;;-5.40;99.90;;;;;;5091155;28;20039;-68
2022/11/20 04:47:13;;;;;;;16.63;8.32;;;-5.40;99.90;;;;;;5091713;28;20024;-67
2022/11/20 04:49:39;;;;;;;16.00;7.90;;;-5.40;99.90;;;;;;5089839;28;20035;-67
2022/11/20 04:52:05;;;;;;;14.05;7.38;;;-5.50;99.90;;;;;;5091057;28;20024;-68
2022/11/20 04:54:31;;;;;;;15.57;6.93;;;-5.50;99.90;;;;;;5091654;28;20099;-69
2022/11/20 04:56:56;;;;;;;14.70;6.53;;;-5.50;99.90;;;;;;5090486;28;20642;-69
2022/11/20 04:59:22;;;;;;;19.27;7.60;;;-5.50;99.90;;;;;;5091850;28;20028;-68
2022/11/20 05:01:47;;;;;;;18.17;7.93;;;-5.50;99.90;;;;;;5089243;28;20035;-67
2022/11/20 05:04:13;;;;;;;14.35;7.72;;;-5.50;99.90;;;;;;5088992;28;20058;-68
2022/11/20 05:06:38;;;;;;;17.48;10.05;;;-5.50;99.90;;;;;;5091096;28;20469;-67
2022/11/20 05:09:04;;;;;;;19.58;8.40;;;-5.50;99.90;;;;;;5089703;28;20085;-68
2022/11/20 05:11:31;;;;;;;17.58;8.32;;;-5.60;99.90;;;;;;5090487;28;20077;-69
2022/11/20 05:13:59;;;;;;;19.98;8.73;;;-5.70;99.90;;;;;;5088879;28;20027;-67
2022/11/20 05:16:25;;;;;;;16.98;7.43;;;-5.70;99.90;;;;;;5091426;28;20023;-66
2022/11/20 05:18:53;;;;;;;19.20;9.05;;;-5.80;99.90;;;;;;5089962;28;20106;-66
2022/11/20 05:21:18;;;;;;;16.95;7.80;;;-5.80;99.90;;;;;;5091055;28;20016;-67
2022/11/20 05:23:45;;;;;;;14.95;8.20;;;-5.80;99.90;;;;;;5090339;28;20102;-65
2022/11/20 05:26:16;;;;;;;19.73;8.70;;;-5.80;99.90;;;;;;5089898;28;20067;-66
2022/11/20 05:28:42;;;;;;;13.95;7.82;;;-5.80;99.90;;;;;;5090200;28;20127;-66
2022/11/20 05:31:09;;;;;;;13.32;7.55;;;-5.80;99.90;;;;;;5090564;28;20170;-66
2022/11/20 05:33:36;;;;;;;12.43;6.32;;;-5.80;99.90;;;;;;5089648;28;20028;-68
2022/11/20 05:36:03;;;;;;;16.73;7.00;;;-5.80;99.90;;;;;;5090377;28;20075;-68
2022/11/20 05:38:29;;;;;;;15.85;7.85;;;-5.80;99.90;;;;;;5090375;28;20032;-68
2022/11/20 05:40:54;;;;;;;16.33;7.82;;;-5.80;99.90;;;;;;5088018;28;20490;-69
2022/11/20 05:43:20;;;;;;;14.70;7.75;;;-5.80;99.90;;;;;;5090447;28;20032;-66
2022/11/20 05:45:55;;;;;;;16.73;7.93;;;-5.80;99.90;;;;;;5087869;28;20060;-67
2022/11/20 05:48:20;;;;;;;20.35;9.45;;;-5.70;99.90;;;;;;5090528;28;20060;-67
2022/11/20 05:50:47;;;;;;;19.52;7.97;;;-5.80;99.90;;;;;;5090027;28;20056;-66
2022/11/20 05:53:13;;;;;;;14.45;7.50;;;-5.80;99.90;;;;;;5089392;28;20027;-66
2022/11/20 05:55:38;;;;;;;14.05;7.40;;;-5.80;99.90;;;;;;5089938;28;20032;-66
2022/11/20 05:58:04;;;;;;;21.13;8.30;;;-5.80;99.90;;;;;;5089839;28;20123;-66
2022/11/20 06:00:29;;;;;;;17.38;8.05;;;-5.90;99.90;;;;;;5088511;28;20016;-66
2022/11/20 06:02:55;;;;;;;17.40;7.85;;;-6.00;99.90;;;;;;5089819;28;20032;-66
2022/11/20 06:05:20;;;;;;;16.65;7.47;;;-6.00;99.90;;;;;;5089555;28;20441;-66
2022/11/20 06:07:46;;;;;;;17.83;8.98;;;-6.00;99.90;;;;;;5088822;28;20078;-66
2022/11/20 06:10:11;;;;;;;17.35;8.27;;;-6.00;99.90;;;;;;5089436;28;20422;-65
2022/11/20 06:12:37;;;;;;;17.38;8.18;;;-5.90;99.90;;;;;;5089296;28;20039;-66
2022/11/20 06:15:04;;;;;;;16.02;7.50;;;-5.90;99.90;;;;;;5089517;28;20080;-65
2022/11/20 06:17:30;;;;;;;18.98;8.10;;;-5.90;99.90;;;;;;5090108;28;20028;-66
2022/11/20 06:19:56;;;;;;;17.48;8.32;;;-5.90;99.90;;;;;;5089766;28;20027;-65
2022/11/20 06:22:21;;;;;;;18.48;9.23;;;-5.90;99.90;;;;;;5088410;28;20035;-65
2022/11/20 06:24:47;;;;;;;15.15;7.82;;;-5.90;99.90;;;;;;5090152;28;20020;-65
2022/11/20 06:27:13;;;;;;;17.95;8.07;;;-5.90;99.90;;;;;;5094086;28;20476;-66
2022/11/20 06:29:38;;;;;;;18.60;7.90;;;-6.00;99.90;;;;;;5093644;28;20047;-65
2022/11/20 06:32:04;;;;;;;15.57;7.80;;;-6.00;99.90;;;;;;5092657;28;20158;-66
2022/11/20 06:34:29;;;;;;;16.73;8.02;;;-6.00;99.90;;;;;;5094071;28;20039;-66
2022/11/20 06:36:55;;;;;;;15.43;7.57;;;-6.00;99.90;;;;;;5092485;28;20020;-66
2022/11/20 06:39:20;;;;;;;17.52;7.30;;;-6.00;99.90;;;;;;5094168;28;20034;-67
2022/11/20 06:41:46;;;;;;;17.35;9.55;;;-6.00;99.90;;;;;;5093585;28;20118;-65
2022/11/20 06:44:12;;;;;;;16.05;7.65;;;-6.00;99.90;;;;;;5091908;28;20086;-67
2022/11/20 06:46:37;;;;;;;17.15;8.23;;;-6.00;99.90;;;;;;5093612;28;20028;-66
2022/11/20 06:49:03;;;;;;;14.40;7.65;;;-5.90;99.90;;;;;;5092739;28;20059;-66
2022/11/20 06:51:28;;;;;;;16.83;7.55;;;-6.00;99.90;;;;;;5092023;28;20027;-69
2022/11/20 06:53:54;;;;;;;15.82;7.28;;;-5.90;99.90;;;;;;5092821;28;20081;-65
2022/11/20 06:56:20;;;;;;;16.45;7.90;;;-6.00;99.90;;;;;;5093215;28;20024;-66
2022/11/20 06:58:45;;;;;;;13.50;6.82;;;-6.00;99.90;;;;;;5091624;28;20032;-66
2022/11/20 07:01:13;;;;;;;16.65;8.35;;;-5.90;99.90;;;;;;5092221;28;20126;-66
2022/11/20 07:03:40;;;;;;;15.60;7.90;;;-5.90;99.90;;;;;;5092447;28;20028;-66
2022/11/20 07:06:06;;;;;;;17.90;11.13;;;-5.90;99.90;;;;;;5091484;28;20426;-68
2022/11/20 07:08:33;;;;;;;16.92;8.98;;;-5.90;99.90;;;;;;5093057;28;20027;-67
2022/11/20 07:11:01;;;;;;;20.33;8.80;;;-5.90;99.90;;;;;;5091824;28;20034;-66
2022/11/20 07:13:28;;;;;;;13.52;8.05;;;-5.80;99.90;;;;;;5092667;28;20472;-65
2022/11/20 07:15:54;;;;;;;20.65;8.63;;;-5.80;99.90;;;;;;5092567;28;20115;-66
2022/11/20 07:18:19;;;;;;;15.57;8.25;;;-5.80;99.90;;;;;;5092456;28;20150;-65
2022/11/20 07:20:45;;;;;;;20.65;7.93;;;-5.80;99.90;;;;;;5092903;28;20088;-66
2022/11/20 07:23:10;;;;;;;21.70;9.23;;;-5.80;99.90;;;;;;5092826;28;20452;-67
2022/11/20 07:25:36;;;;;;;15.98;8.13;;;-5.80;99.90;;;;;;5090940;28;20061;-67
2022/11/20 07:28:01;;;;;;;19.17;8.10;;;-5.70;99.90;;;;;;5092326;28;20032;-67
2022/11/20 07:30:28;;;;;;;15.00;7.70;;;-5.80;99.90;;;;;;5093151;28;20104;-69
2022/11/20 07:32:55;;;;;;;18.05;9.18;;;-5.70;99.90;;;;;;5092056;28;20138;-68
2022/11/20 07:35:21;;;;;;;17.92;8.65;;;-5.70;99.90;;;;;;5093115;28;20021;-69
2022/11/20 07:37:48;;;;;;;14.95;7.38;;;-5.70;99.90;;;;;;5091869;28;20035;-69
2022/11/20 07:40:14;;;;;;;14.45;7.28;;;-5.60;99.90;;;;;;5092019;28;20079;-69
2022/11/20 07:42:48;;;;;;;18.30;8.45;;;-5.50;99.90;;;;;;5092334;28;20051;-70
2022/11/20 07:45:13;;;;;;;19.02;9.07;;;-5.40;99.90;;;;;;5092062;28;20456;-70
2022/11/20 07:47:39;;;;;;;20.17;8.35;;;-5.30;99.90;;;;;;5092011;28;20028;-69
2022/11/20 07:50:05;;;;;;;17.15;8.27;;;-5.30;99.90;;;;;;5092247;28;20031;-70
2022/11/20 07:52:30;;;;;;;19.70;8.77;;;-5.20;99.90;;;;;;5091874;28;20131;-69
2022/11/20 07:54:56;;;;;;;24.33;10.55;;;-5.20;99.90;;;;;;5092196;28;20079;-69
2022/11/20 07:57:22;;;;;;;20.42;9.35;;;-5.10;99.90;;;;;;5091060;28;20067;-69
2022/11/20 07:59:47;;;;;;;19.98;10.63;;;-5.00;99.90;;;;;;5091385;28;20093;-69
2022/11/20 08:02:13;;;;;;;18.65;9.93;;;-4.90;99.90;;;;;;5092034;28;20039;-70
2022/11/20 08:04:38;;;;;;;26.73;11.65;;;-4.80;99.90;;;;;;5092365;28;20031;-67
2022/11/20 08:07:04;;;;;;;25.23;11.05;;;-4.60;99.90;;;;;;5091234;28;20026;-65
2022/11/20 08:09:29;;;;;;;21.80;10.02;;;-4.50;99.90;;;;;;5092252;28;20080;-66
2022/11/20 08:14:49;;;;;;;26.13;12.30;;;-4.30;99.90;;;;;;5035855;28;20036;-66
2022/11/20 08:17:15;;;;;;;27.85;11.20;;;-4.20;99.90;;;;;;5086499;28;20044;-65
2022/11/20 08:19:41;;;;;;;27.73;12.35;;;-4.10;99.90;;;;;;5091618;28;20494;-65
2022/11/20 08:22:06;;;;;;;29.70;12.45;;;-4.00;99.90;;;;;;5090482;28;20354;-65
2022/11/20 08:24:33;;;;;;;29.67;12.35;;;-3.90;99.90;;;;;;5090325;28;20078;-65
2022/11/20 08:26:59;;;;;;;20.90;9.70;;;-3.80;99.90;;;;;;5091461;28;20476;-66
2022/11/20 08:29:27;;;;;;;19.77;10.98;;;-3.70;99.90;;;;;;5090418;28;20083;-66
2022/11/20 08:31:52;;;;;;;19.25;11.13;;;-3.70;99.90;;;;;;5089124;28;20047;-66
2022/11/20 08:34:18;;;;;;;26.95;12.32;;;-3.70;99.90;;;;;;5091296;28;20024;-64
2022/11/20 08:36:44;;;;;;;27.95;12.45;;;-3.70;99.90;;;;;;5090433;28;20059;-65
2022/11/20 08:39:11;;;;;;;27.60;12.02;;;-3.70;99.90;;;;;;5090956;28;20064;-67
2022/11/20 08:41:37;;;;;;;20.42;10.02;;;-3.60;99.90;;;;;;5090632;28;20057;-68
2022/11/20 08:44:06;;;;;;;23.98;11.70;;;-3.50;99.90;;;;;;5090816;28;20032;-67
2022/11/20 08:46:43;;;;;;;24.98;11.95;;;-3.50;99.90;;;;;;5089805;28;20091;-68
2022/11/20 08:49:11;;;;;;;23.40;11.75;;;-3.50;99.90;;;;;;5088299;28;20024;-69
2022/11/20 08:51:37;;;;;;;16.95;10.20;;;-3.40;99.90;;;;;;5091259;28;20411;-65
2022/11/20 08:54:03;;;;;;;22.25;10.93;;;-3.40;99.90;;;;;;5089157;28;20084;-66
2022/11/20 08:56:29;;;;;;;23.50;10.85;;;-3.30;99.90;;;;;;5084290;28;20024;-66
2022/11/20 08:58:55;;;;;;;24.58;10.73;;;-3.30;99.90;;;;;;5085923;28;20368;-66
2022/11/20 09:01:22;;;;;;;21.15;9.85;;;-3.30;99.90;;;;;;5086152;28;20500;-66
2022/11/20 09:03:48;;;;;;;23.13;10.82;;;-3.30;99.90;;;;;;5085771;28;20981;-67
2022/11/20 09:06:14;;;;;;;22.23;9.95;;;-3.20;99.90;;;;;;5089378;28;20142;-66
2022/11/20 09:08:40;;;;;;;29.73;13.00;;;-3.20;99.90;;;;;;5087258;28;20020;-66
2022/11/20 09:11:06;;;;;;;27.50;13.18;;;-3.10;99.90;;;;;;5088493;28;20465;-66
2022/11/20 09:13:34;;;;;;;23.88;13.73;;;-3.10;99.90;;;;;;5086394;28;20034;-66
2022/11/20 09:16:06;;;;;;;22.88;11.93;;;-3.00;99.90;;;;;;5088506;28;20388;-67
2022/11/20 09:18:32;;;;;;;26.27;13.88;;;-2.90;99.90;;;;;;5089362;28;20032;-67
2022/11/20 09:20:58;;;;;;;30.02;13.55;;;-2.80;99.90;;;;;;5087572;28;20019;-68
2022/11/20 09:23:25;;;;;;;25.02;13.13;;;-2.70;99.90;;;;;;5090865;28;20082;-67
2022/11/20 09:25:50;;;;;;;26.65;13.68;;;-2.60;99.90;;;;;;5088616;28;20408;-68
2022/11/20 09:28:18;;;;;;;28.70;13.55;;;-2.40;99.90;;;;;;5083126;28;20044;-66
2022/11/20 09:30:44;;;;;;;27.30;13.13;;;-2.30;99.90;;;;;;5086285;28;20482;-68
2022/11/20 09:33:10;;;;;;;25.95;12.85;;;-2.10;99.90;;;;;;5089969;28;20027;-71
2022/11/20 09:35:36;;;;;;;26.77;12.88;;;-2.00;99.90;;;;;;5089343;28;20028;-66
2022/11/20 09:38:06;;;;;;;24.80;11.95;;;-1.80;99.90;;;;;;5089900;28;20396;-66
2022/11/20 09:40:34;;;;;;;28.02;13.80;;;-1.60;99.90;;;;;;5090101;28;20016;-67
2022/11/20 09:43:05;;;;;;;28.27;15.07;;;-1.50;99.90;;;;;;5094097;28;20474;-69
2022/11/20 09:46:05;;;;;;;34.30;16.65;;;-1.40;99.90;;;;;;5089858;28;20024;-67
2022/11/20 09:48:56;;;;;;;29.95;15.38;;;-1.30;99.90;;;;;;5090714;28;20069;-67
2022/11/20 09:51:36;;;;;;;30.02;15.30;;;-1.20;99.90;;;;;;5074148;28;20031;-67
2022/11/20 09:54:21;;;;;;;32.67;16.35;;;-1.10;99.90;;;;;;5086400;28;20415;-67
2022/11/20 09:56:56;;;;;;;29.83;16.13;;;-0.90;99.90;;;;;;5086591;28;20024;-67
2022/11/20 09:59:45;;;;;;;25.00;14.68;;;-0.80;99.90;;;;;;5089533;28;20039;-66
2022/11/20 10:02:26;;;;;;;31.02;16.55;;;-0.70;99.90;;;;;;5088821;28;20074;-66
2022/11/20 10:05:03;;;;;;;31.58;15.77;;;-0.60;99.90;;;;;;5089264;28;20056;-65
2022/11/20 10:07:54;;;;;;;28.63;14.93;;;-0.50;99.90;;;;;;5089617;28;20034;-68
2022/11/20 10:10:26;;;;;;;34.80;15.90;;;-0.40;99.90;;;;;;5090244;28;20108;-68
2022/11/20 10:12:55;;;;;;;;;;;-0.30;99.90;;;;;;5085947;28;20024;-68
2022/11/20 10:15:45;;;;;;;31.42;16.60;;;-0.30;99.90;;;;;;5089159;28;19973;-69
2022/11/20 10:18:26;;;;;;;33.55;17.30;;;-0.20;99.90;;;;;;5088619;28;20040;-69
2022/11/20 10:21:15;;;;;;;30.35;15.43;;;-0.10;99.90;;;;;;5089229;28;20091;-69
2022/11/20 10:24:20;;;;;;;32.67;17.83;;;-0.10;99.90;;;;;;5088060;28;20063;-68
2022/11/20 10:27:04;;;;;;;33.25;16.35;;;0.00;99.90;;;;;;5087868;28;20115;-68
2022/11/20 10:29:34;;;;;;;35.80;17.85;;;0.10;99.90;;;;;;5077894;28;20062;-67
2022/11/20 10:32:16;;;;;;;32.80;15.60;;;0.20;99.90;;;;;;5089185;28;20024;-68
2022/11/20 10:35:19;;;;;;;32.72;16.98;;;0.30;99.90;;;;;;5087685;28;20028;-68
2022/11/20 10:37:49;;;;;;;41.53;17.80;;;0.40;99.90;;;;;;5086863;28;20050;-68
2022/11/20 10:40:27;;;;;;;33.22;17.00;;;0.40;99.90;;;;;;5088394;28;20070;-68
2022/11/20 10:43:00;;;;;;;34.45;17.10;;;0.50;99.90;;;;;;5087408;28;20035;-68
2022/11/20 10:45:29;;;;;;;34.38;17.60;;;0.50;99.90;;;;;;5089567;28;20154;-68
2022/11/20 10:48:17;;;;;;;32.85;16.77;;;0.60;99.90;;;;;;5089329;28;20133;-68
2022/11/20 10:51:20;;;;;;;33.65;16.15;;;0.70;99.90;;;;;;5078460;28;20126;-68
2022/11/20 10:53:58;;;;;;;32.35;15.35;;;0.70;99.90;;;;;;5088251;28;20074;-69
2022/11/20 10:56:47;;;;;;;33.97;17.05;;;0.80;99.90;;;;;;5088016;28;20029;-68
2022/11/20 10:59:41;;;;;;;28.05;15.90;;;0.80;99.90;;;;;;5089629;28;20036;-70
2022/11/20 11:02:30;;;;;;;29.23;14.82;;;0.90;99.90;;;;;;5084427;28;20085;-68
2022/11/20 11:04:56;;;;;;;31.08;15.32;;;0.80;99.90;;;;;;5084040;28;20020;-68
2022/11/20 11:07:34;;;;;;;30.30;14.68;;;0.80;99.90;;;;;;5088418;28;20388;-68
2022/11/20 11:10:00;;;;;;;28.15;14.32;;;0.70;99.90;;;;;;5093854;28;20769;-69
2022/11/20 11:12:28;;;;;;;28.23;15.18;;;0.70;99.90;;;;;;5099028;28;20020;-69
2022/11/20 11:14:56;;;;;;;27.30;14.60;;;0.60;99.90;;;;;;5082570;28;20111;-69
2022/11/20 11:17:27;;;;;;;29.15;15.73;;;0.50;99.90;;;;;;5087790;28;20032;-69
2022/11/20 11:20:10;;;;;;;32.25;16.00;;;0.50;99.90;;;;;;5092797;28;20032;-69
2022/11/20 11:22:45;;;;;;;27.30;14.35;;;0.40;99.90;;;;;;5092672;28;20032;-69
2022/11/20 11:25:21;;;;;;;32.08;17.33;;;0.30;99.90;;;;;;5091764;28;20036;-69
2022/11/20 11:27:48;;;;;;;26.15;14.23;;;0.30;99.90;;;;;;5075314;28;20035;-69
2022/11/20 11:30:15;;;;;;;27.83;14.18;;;0.30;99.90;;;;;;5087227;28;20041;-69
2022/11/20 11:32:42;;;;;;;28.33;13.68;;;0.40;99.90;;;;;;5079265;28;20079;-69
2022/11/20 11:35:27;;;;;;;32.08;15.75;;;0.40;99.90;;;;;;5091539;28;20028;-69
2022/11/20 11:38:01;;;;;;;30.90;15.90;;;0.50;99.90;;;;;;5072732;28;20481;-70
2022/11/20 11:40:31;;;;;;;29.35;16.13;;;0.60;99.90;;;;;;5102467;28;20021;-69
2022/11/20 11:43:02;;;;;;;33.90;17.20;;;0.70;99.90;;;;;;5089922;28;20039;-69
2022/11/20 11:45:28;;;;;;;36.13;18.95;;;0.80;99.90;;;;;;5088257;28;20161;-69
2022/11/20 11:47:57;;;;;;;34.92;18.13;;;0.90;99.90;;;;;;5071823;28;20173;-67
2022/11/20 11:50:28;;;;;;;40.67;19.88;;;1.00;99.90;;;;;;5091671;28;20020;-68
2022/11/20 11:53:08;;;;;;;36.85;18.15;;;1.10;99.90;;;;;;5085863;28;20482;-68
2022/11/20 11:55:48;;;;;;;32.78;18.83;;;1.20;99.90;;;;;;5088776;28;20101;-68
2022/11/20 11:58:19;;;;;;;37.55;19.42;;;1.40;99.90;;;;;;5077864;28;20073;-68
2022/11/20 12:00:56;;;;;;;40.65;20.00;;;1.50;99.90;;;;;;5087941;28;20028;-69
2022/11/20 12:03:32;;;;;;;39.80;19.85;;;1.60;99.90;;;;;;5077337;28;20035;-68
2022/11/20 12:06:04;;;;;;;33.17;17.52;;;1.70;99.90;;;;;;5087583;28;20133;-67
2022/11/20 12:08:51;;;;;;;33.55;18.05;;;1.80;99.90;;;;;;5090860;28;20028;-67
2022/11/20 12:11:24;;;;;;;40.75;20.85;;;1.80;99.90;;;;;;5090930;28;20472;-67
2022/11/20 12:14:23;;;;;;;33.63;18.23;;;1.80;99.90;;;;;;5088207;28;20060;-65
2022/11/20 12:16:50;;;;;;;28.80;16.27;;;1.90;99.90;;;;;;5070880;28;20017;-66
2022/11/20 12:19:16;;;;;;;32.22;17.55;;;1.90;99.90;;;;;;5102260;28;20036;-65
2022/11/20 12:22:09;;;;;;;34.10;17.60;;;2.00;99.90;;;;;;5081769;28;20078;-64
2022/11/20 12:24:54;;;;;;;39.70;19.55;;;2.00;99.90;;;;;;5084272;28;20038;-66
2022/11/20 12:27:38;;;;;;;35.80;18.38;;;2.00;99.90;;;;;;5089315;28;20024;-66
2022/11/20 12:30:16;;;;;;;34.33;18.98;;;2.00;99.90;;;;;;5089811;28;20051;-66
2022/11/20 12:33:00;;;;;;;36.92;19.05;;;2.10;99.90;;;;;;5089450;28;20044;-65
2022/11/20 12:35:37;;;;;;;36.42;18.98;;;2.10;99.90;;;;;;5090525;28;20402;-65
2022/11/20 12:38:25;;;;;;;34.03;18.67;;;2.30;99.90;;;;;;5091337;28;20119;-65
2022/11/20 12:45:09;;;;;;;32.65;17.52;;;2.30;99.90;;;;;;5090416;28;20028;-66
2022/11/20 12:47:34;;;;;;;31.75;16.67;;;2.30;99.90;;;;;;5090881;28;20058;-66
2022/11/20 12:50:17;;;;;;;28.15;17.02;;;2.30;99.90;;;;;;5091311;28;20024;-66
2022/11/20 12:52:55;;;;;;;30.42;18.15;;;2.30;99.90;;;;;;5091493;28;20028;-65
2022/11/20 12:55:41;;;;;;;27.67;15.18;;;2.30;99.90;;;;;;5091713;28;20016;-66
2022/11/20 12:58:30;;;;;;;26.33;14.15;;;2.30;99.90;;;;;;5090855;28;20039;-66
2022/11/20 13:04:36;;;;;;;27.08;15.43;;;2.40;99.90;;;;;;5078169;28;20036;-66